Terminal Aerodrome Forecast
Issued by NWS Blacksburg, VA

Home | Current Version | Previous Version | Text Only | Print | Product List | Glossary On
Versions: 1 2 3 4 5 6 7 8 9 10 11 12 13 14 15 16 17 18 19 20 21
000
FTUS41 KRNK 271730
TAFLYH
TAF
KLYH 271730Z 2718/2818 21008KT P6SM VCSH BKN025
     FM271900 20010KT P6SM VCTS BKN030CB
      TEMPO 2719/2720 2SM SHRA OVC007
     FM272300 21004KT P6SM VCTS BKN035CB
     FM280900 VRB03KT 5SM BR BKN015
     FM281700 19007KT P6SM OVC030=

USA.gov is the U.S. government's official web portal to all federal, state and local government web resources and services.